Time;durP1;ratioP1;P1;durP2;ratioP2;P2;SDS_P1;SDS_P2;PMS_P1;PMS_P2;Temp;Humidity;BMP_temperature;BMP_pressure;BME280_temperature;BME280_humidity;BME280_pressure;Samples;Min_cycle;Max_cycle;Signal;HPM_P1;HPM_P2
2023/04/17 00:02:09;;;;;;;;;;;7.90;89.50;;;;;;5007387;28;19913;-80
2023/04/17 00:04:35;;;;;;;;;;;7.90;89.30;;;;;;5003064;28;19905;-77
2023/04/17 00:07:02;;;;;;;;;;;7.80;90.00;;;;;;5010518;28;19913;-79
2023/04/17 00:09:28;;;;;;;;;;;7.80;90.30;;;;;;5001824;28;19941;-78
2023/04/17 00:11:54;;;;;;;;;;;7.80;90.80;;;;;;5009906;28;19996;-78
2023/04/17 00:14:20;;;;;;;;;;;7.80;90.90;;;;;;5010465;28;19996;-79
2023/04/17 00:16:45;;;;;;;;;;;7.60;91.30;;;;;;5009023;28;19963;-78
2023/04/17 00:19:11;;;;;;;;;;;7.50;91.50;;;;;;5005306;28;19913;-84
2023/04/17 00:21:36;;;;;;;;;;;7.50;91.70;;;;;;5009772;28;19940;-78
2023/04/17 00:24:02;;;;;;;;;;;7.60;91.90;;;;;;5004838;28;20000;-82
2023/04/17 00:26:27;;;;;;;;;;;7.70;92.00;;;;;;5010650;28;19912;-78
2023/04/17 00:28:53;;;;;;;;;;;7.60;92.40;;;;;;5010679;28;20369;-80
2023/04/17 00:31:18;;;;;;;;;;;7.60;92.80;;;;;;5003999;28;19963;-80
2023/04/17 00:33:45;;;;;;;;;;;7.60;93.00;;;;;;5004632;28;20407;-81
2023/04/17 00:36:12;;;;;;;;;;;7.70;93.00;;;;;;5010553;28;19905;-79
2023/04/17 00:38:38;;;;;;;;;;;7.70;93.20;;;;;;5005256;28;20348;-77
2023/04/17 00:41:03;;;;;;;;;;;7.70;94.20;;;;;;5003413;28;19909;-77
2023/04/17 00:43:29;;;;;;;;;;;7.80;94.40;;;;;;5004159;28;19909;-81
2023/04/17 00:45:55;;;;;;;;;;;7.80;94.30;;;;;;5004768;28;20369;-82
2023/04/17 00:48:22;;;;;;;;;;;7.70;94.70;;;;;;5002377;28;20647;-76
2023/04/17 00:50:48;;;;;;;;;;;7.70;95.00;;;;;;5005286;28;19956;-78
2023/04/17 00:53:14;;;;;;;;;;;7.70;95.10;;;;;;5007947;28;19917;-78
2023/04/17 00:55:40;;;;;;;;;;;7.60;95.30;;;;;;5005774;28;19932;-77
2023/04/17 00:58:06;;;;;;;;;;;7.70;95.60;;;;;;5005865;28;20719;-79
2023/04/17 01:00:33;;;;;;;;;;;7.70;96.00;;;;;;5003521;28;20003;-78
2023/04/17 01:02:59;;;;;;;;;;;7.60;96.10;;;;;;5001987;28;19916;-77
2023/04/17 01:05:24;;;;;;;;;;;7.60;96.40;;;;;;5001064;28;19905;-78
2023/04/17 01:07:50;;;;;;;;;;;7.80;97.10;;;;;;4996380;28;20020;-79
2023/04/17 01:10:15;;;;;;;;;;;7.60;96.70;;;;;;4999789;28;19920;-82
2023/04/17 01:12:45;;;;;;;;;;;7.50;96.90;;;;;;4995920;28;20300;-81
2023/04/17 01:15:11;;;;;;;;;;;7.40;97.20;;;;;;4993645;28;20134;-81
2023/04/17 01:17:37;;;;;;;;;;;7.40;97.50;;;;;;4996273;28;20702;-80
2023/04/17 01:20:06;;;;;;;;;;;7.40;98.00;;;;;;5004134;28;19909;-80
2023/04/17 01:22:31;;;;;;;;;;;7.50;98.30;;;;;;4995318;28;20118;-81
2023/04/17 01:24:57;;;;;;;;;;;7.40;98.20;;;;;;5002026;28;19913;-80
2023/04/17 01:27:23;;;;;;;;;;;7.60;98.50;;;;;;4992187;28;19917;-81
2023/04/17 01:29:49;;;;;;;;;;;7.40;98.80;;;;;;5001322;28;19913;-82
2023/04/17 01:32:15;;;;;;;;;;;7.50;98.90;;;;;;5001662;28;19979;-80
2023/04/17 01:34:41;;;;;;;;;;;7.40;99.10;;;;;;5001194;28;19987;-82
2023/04/17 01:37:07;;;;;;;;;;;7.50;99.30;;;;;;5000104;28;19921;-79
2023/04/17 01:39:32;;;;;;;;;;;7.50;99.40;;;;;;4996542;28;19910;-80
2023/04/17 01:41:58;;;;;;;;;;;7.50;99.40;;;;;;4995688;28;20381;-80
2023/04/17 01:44:23;;;;;;;;;;;7.40;99.80;;;;;;4996186;28;19917;-79
2023/04/17 01:46:50;;;;;;;;;;;7.30;99.90;;;;;;4995418;28;19953;-83
2023/04/17 01:49:15;;;;;;;;;;;7.40;99.90;;;;;;4994979;28;19936;-79
2023/04/17 01:51:41;;;;;;;;;;;7.40;99.90;;;;;;4989397;28;20654;-81
2023/04/17 01:54:06;;;;;;;;;;;7.30;99.90;;;;;;5000630;28;20445;-79
2023/04/17 01:56:32;;;;;;;;;;;7.30;99.90;;;;;;4993284;28;19914;-79
2023/04/17 01:58:57;;;;;;;;;;;7.30;99.90;;;;;;5001143;28;19925;-78
2023/04/17 02:01:23;;;;;;;;;;;7.50;99.90;;;;;;5000267;28;19996;-78
2023/04/17 02:03:49;;;;;;;;;;;7.40;99.50;;;;;;5002018;28;19910;-77
2023/04/17 02:06:15;;;;;;;;;;;7.40;99.40;;;;;;5003797;28;19996;-78
2023/04/17 02:08:40;;;;;;;;;;;7.50;99.00;;;;;;5004080;28;20365;-81
2023/04/17 02:11:06;;;;;;;;;;;7.50;98.70;;;;;;5009637;28;19914;-81
2023/04/17 02:13:31;;;;;;;;;;;7.40;98.90;;;;;;4995235;28;19933;-83
2023/04/17 02:15:57;;;;;;;;;;;7.50;98.60;;;;;;4994518;28;19918;-82
2023/04/17 02:18:22;;;;;;;;;;;7.40;98.90;;;;;;4999317;28;19941;-79
2023/04/17 02:20:48;;;;;;;;;;;7.20;99.00;;;;;;5002938;28;20022;-79
2023/04/17 02:23:14;;;;;;;;;;;7.30;99.10;;;;;;4999914;28;19921;-78
2023/04/17 02:25:39;;;;;;;;;;;7.20;99.20;;;;;;4998431;28;19917;-79
2023/04/17 02:28:05;;;;;;;;;;;7.10;99.40;;;;;;5006946;28;19909;-81
2023/04/17 02:30:30;;;;;;;;;;;7.20;99.20;;;;;;5004686;28;19913;-80
2023/04/17 02:32:56;;;;;;;;;;;7.30;98.80;;;;;;5008011;28;19913;-79
2023/04/17 02:35:27;;;;;;;;;;;7.40;98.60;;;;;;5004878;28;20011;-80
2023/04/17 02:37:52;;;;;;;;;;;7.50;98.00;;;;;;5005210;28;20365;-78
2023/04/17 02:40:18;;;;;;;;;;;7.40;98.40;;;;;;5001985;28;19910;-79
2023/04/17 02:42:44;;;;;;;;;;;7.30;98.80;;;;;;5001327;28;20284;-79
2023/04/17 02:45:09;;;;;;;;;;;7.20;99.00;;;;;;4994472;28;20455;-78
2023/04/17 02:47:35;;;;;;;;;;;7.20;99.30;;;;;;5006343;28;19924;-80
2023/04/17 02:50:01;;;;;;;;;;;7.30;99.00;;;;;;5009440;28;19909;-83
2023/04/17 02:52:27;;;;;;;;;;;7.30;98.70;;;;;;5005475;28;19963;-82
2023/04/17 02:54:53;;;;;;;;;;;7.20;99.10;;;;;;5005058;28;20004;-78
2023/04/17 02:57:19;;;;;;;;;;;7.10;99.20;;;;;;5003002;28;19921;-81
2023/04/17 02:59:44;;;;;;;;;;;7.30;99.00;;;;;;4989582;28;19943;-79
2023/04/17 03:02:13;;;;;;;;;;;7.20;99.00;;;;;;4994212;28;19913;-79
2023/04/17 03:04:38;;;;;;;;;;;7.30;98.70;;;;;;4996749;28;19996;-76
2023/04/17 03:07:05;;;;;;;;;;;7.30;98.70;;;;;;4989982;28;20008;-78
2023/04/17 03:09:32;;;;;;;;;;;7.40;98.60;;;;;;4999352;28;19910;-78
2023/04/17 03:11:57;;;;;;;;;;;7.30;98.40;;;;;;4997809;28;19909;-76
2023/04/17 03:14:23;;;;;;;;;;;7.30;98.40;;;;;;4990822;28;19917;-80
2023/04/17 03:16:48;;;;;;;;;;;7.40;98.70;;;;;;4998470;28;19909;-77
2023/04/17 03:19:14;;;;;;;;;;;7.30;98.40;;;;;;4996393;28;19910;-78
2023/04/17 03:21:39;;;;;;;;;;;7.20;98.70;;;;;;4995603;28;20082;-77
2023/04/17 03:24:05;;;;;;;;;;;7.20;99.10;;;;;;4993289;28;19913;-78
2023/04/17 03:26:31;;;;;;;;;;;7.20;98.80;;;;;;5001228;28;19913;-80
2023/04/17 03:28:56;;;;;;;;;;;7.30;98.70;;;;;;5001415;28;20612;-81
2023/04/17 03:31:22;;;;;;;;;;;7.30;98.50;;;;;;5006546;28;19914;-80
2023/04/17 03:33:48;;;;;;;;;;;7.30;98.80;;;;;;4999905;28;19916;-79
2023/04/17 03:36:14;;;;;;;;;;;7.20;98.60;;;;;;5003089;28;20691;-78
2023/04/17 03:38:40;;;;;;;;;;;7.10;99.30;;;;;;5004181;28;20749;-80
2023/04/17 03:41:06;;;;;;;;;;;7.10;99.20;;;;;;4998010;28;19972;-80
2023/04/17 03:43:31;;;;;;;;;;;7.00;99.40;;;;;;5002850;28;20440;-78
2023/04/17 03:45:57;;;;;;;;;;;7.00;99.20;;;;;;5014668;28;20381;-80
2023/04/17 03:48:22;;;;;;;;;;;7.20;99.00;;;;;;4996182;28;20365;-78
2023/04/17 03:50:49;;;;;;;;;;;7.00;99.10;;;;;;5009006;28;19956;-80
2023/04/17 03:53:15;;;;;;;;;;;7.30;98.60;;;;;;5009374;28;19917;-77
2023/04/17 03:55:40;;;;;;;;;;;7.30;98.50;;;;;;5009391;28;19916;-79
2023/04/17 03:58:06;;;;;;;;;;;7.20;98.90;;;;;;5003858;28;20012;-78
2023/04/17 04:00:31;;;;;;;;;;;7.30;98.50;;;;;;5003264;28;19913;-81
2023/04/17 04:02:57;;;;;;;;;;;7.30;98.70;;;;;;5000511;28;20372;-80
2023/04/17 04:05:23;;;;;;;;;;;7.20;98.90;;;;;;4998058;28;20023;-80
2023/04/17 04:07:48;;;;;;;;;;;7.10;99.10;;;;;;4994610;28;19913;-79
2023/04/17 04:10:14;;;;;;;;;;;7.00;99.30;;;;;;4994848;28;19910;-78
2023/04/17 04:12:39;;;;;;;;;;;7.20;99.10;;;;;;4993363;28;19914;-81
2023/04/17 04:15:05;;;;;;;;;;;7.10;99.50;;;;;;4995907;28;19924;-79
2023/04/17 04:17:31;;;;;;;;;;;7.00;99.50;;;;;;4995340;28;19914;-79
2023/04/17 04:19:56;;;;;;;;;;;7.00;99.90;;;;;;5002371;28;19910;-79
2023/04/17 04:22:22;;;;;;;;;;;7.10;99.20;;;;;;4997657;28;20464;-81
2023/04/17 04:24:48;;;;;;;;;;;7.20;99.20;;;;;;5002939;28;20527;-81
2023/04/17 04:27:16;;;;;;;;;;;7.10;99.20;;;;;;4996928;28;20524;-80
2023/04/17 04:29:44;;;;;;;;;;;7.30;99.00;;;;;;5003817;28;19913;-80
2023/04/17 04:32:12;;;;;;;;;;;7.20;99.20;;;;;;5001820;28;19913;-79
2023/04/17 04:34:38;;;;;;;;;;;7.00;99.50;;;;;;5003103;28;19921;-79
2023/04/17 04:37:03;;;;;;;;;;;7.00;99.70;;;;;;5001196;28;19919;-79
2023/04/17 04:39:29;;;;;;;;;;;7.00;99.90;;;;;;4995965;28;19909;-78
2023/04/17 04:41:54;;;;;;;;;;;7.00;99.90;;;;;;4995922;28;20272;-79
2023/04/17 04:44:20;;;;;;;;;;;7.00;99.70;;;;;;4992539;28;20431;-78
2023/04/17 04:46:45;;;;;;;;;;;7.10;99.60;;;;;;4992752;28;20346;-78
2023/04/17 04:49:11;;;;;;;;;;;6.90;99.90;;;;;;4995854;28;20360;-80
2023/04/17 04:51:37;;;;;;;;;;;6.90;99.90;;;;;;4996392;28;20007;-79
2023/04/17 04:54:02;;;;;;;;;;;7.00;99.90;;;;;;4990510;28;19913;-79
2023/04/17 04:56:28;;;;;;;;;;;6.80;99.90;;;;;;4995106;28;19910;-80
2023/04/17 04:58:57;;;;;;;;;;;6.70;99.90;;;;;;4994821;28;19925;-80
2023/04/17 05:01:23;;;;;;;;;;;6.70;99.90;;;;;;5002608;28;19999;-81
2023/04/17 05:03:48;;;;;;;;;;;6.60;99.90;;;;;;5003669;28;19909;-81
2023/04/17 05:06:14;;;;;;;;;;;6.70;99.90;;;;;;4995578;28;19914;-79
2023/04/17 05:08:40;;;;;;;;;;;6.60;99.90;;;;;;5000109;28;19920;-80
2023/04/17 05:11:06;;;;;;;;;;;6.70;99.90;;;;;;4998374;28;19925;-83
2023/04/17 05:13:31;;;;;;;;;;;6.70;99.90;;;;;;4990396;28;20578;-84
2023/04/17 05:15:57;;;;;;;;;;;6.70;99.90;;;;;;4993073;28;20396;-82
2023/04/17 05:18:23;;;;;;;;;;;6.60;99.90;;;;;;4994992;28;20384;-80
2023/04/17 05:20:49;;;;;;;;;;;6.70;99.90;;;;;;4999349;28;19959;-81
2023/04/17 05:23:14;;;;;;;;;;;7.50;99.10;;;;;;5000673;28;19917;-81
2023/04/17 05:25:40;;;;;;;;;;;7.90;97.70;;;;;;4997017;28;20488;-82
2023/04/17 05:28:06;;;;;;;;;;;8.00;97.30;;;;;;5001891;28;19916;-81
2023/04/17 05:30:31;;;;;;;;;;;8.40;96.40;;;;;;4988148;28;19918;-80
2023/04/17 05:32:57;;;;;;;;;;;8.90;95.00;;;;;;5001733;28;20076;-79
2023/04/17 05:35:24;;;;;;;;;;;9.50;93.40;;;;;;5001890;28;20270;-80
2023/04/17 05:37:49;;;;;;;;;;;10.00;91.90;;;;;;5001800;28;19948;-80
2023/04/17 05:40:15;;;;;;;;;;;10.20;91.40;;;;;;5003361;28;19991;-80
2023/04/17 05:42:41;;;;;;;;;;;10.50;90.50;;;;;;5002843;28;20003;-78
2023/04/17 05:45:07;;;;;;;;;;;11.00;89.80;;;;;;5003371;28;19909;-80
2023/04/17 05:47:32;;;;;;;;;;;11.00;88.60;;;;;;4990295;28;20015;-82
2023/04/17 05:49:58;;;;;;;;;;;11.30;87.90;;;;;;5003814;28;19909;-80
2023/04/17 05:52:24;;;;;;;;;;;11.60;87.10;;;;;;4998570;28;19995;-81
2023/04/17 05:54:50;;;;;;;;;;;11.60;86.30;;;;;;5004536;28;19905;-81
2023/04/17 05:57:15;;;;;;;;;;;11.80;85.50;;;;;;5003797;28;19928;-79
2023/04/17 05:59:42;;;;;;;;;;;12.00;85.10;;;;;;5004142;28;19917;-81
2023/04/17 06:02:07;;;;;;;;;;;12.20;84.20;;;;;;5004825;28;19910;-83
2023/04/17 06:04:33;;;;;;;;;;;12.30;83.40;;;;;;5007356;28;19917;-82
2023/04/17 06:06:58;;;;;;;;;;;12.50;83.00;;;;;;5007732;28;20837;-80
2023/04/17 06:09:24;;;;;;;;;;;12.60;82.00;;;;;;5007542;28;19916;-83
2023/04/17 06:11:50;;;;;;;;;;;13.30;79.40;;;;;;5007091;28;19932;-81
2023/04/17 06:14:15;;;;;;;;;;;13.40;78.90;;;;;;5007586;28;19917;-78
2023/04/17 06:16:41;;;;;;;;;;;13.90;77.70;;;;;;5003420;28;19951;-80
2023/04/17 06:19:06;;;;;;;;;;;14.30;75.90;;;;;;5006972;28;20448;-83
2023/04/17 06:21:32;;;;;;;;;;;14.70;74.50;;;;;;5004800;28;19953;-79
2023/04/17 06:23:57;;;;;;;;;;;15.40;72.50;;;;;;5006038;28;20312;-80
2023/04/17 06:26:23;;;;;;;;;;;15.00;72.30;;;;;;5003957;28;20446;-86
2023/04/17 06:28:48;;;;;;;;;;;14.90;73.20;;;;;;5005450;28;19910;-79
2023/04/17 06:31:14;;;;;;;;;;;15.50;72.80;;;;;;4994699;28;19910;-82
2023/04/17 06:33:39;;;;;;;;;;;15.70;70.60;;;;;;5003164;28;19924;-81
2023/04/17 06:36:05;;;;;;;;;;;15.30;70.50;;;;;;5005128;28;19909;-82
2023/04/17 06:38:30;;;;;;;;;;;15.20;70.50;;;;;;5005567;28;19913;-81
2023/04/17 06:40:56;;;;;;;;;;;15.80;69.10;;;;;;5001773;28;20400;-81
2023/04/17 06:43:22;;;;;;;;;;;16.10;68.40;;;;;;5001462;28;20388;-81
2023/04/17 06:45:47;;;;;;;;;;;16.00;68.60;;;;;;4999936;28;20398;-81
2023/04/17 06:48:13;;;;;;;;;;;15.90;67.80;;;;;;5002858;28;19910;-81
2023/04/17 06:50:38;;;;;;;;;;;15.30;69.90;;;;;;5003061;28;19909;-81
2023/04/17 06:53:04;;;;;;;;;;;15.40;70.60;;;;;;5004692;28;19928;-83
2023/04/17 06:55:30;;;;;;;;;;;15.60;69.20;;;;;;5005986;28;20328;-81
2023/04/17 06:57:55;;;;;;;;;;;15.80;68.30;;;;;;5004652;28;19990;-79
2023/04/17 07:00:21;;;;;;;;;;;16.10;68.00;;;;;;5005842;28;19921;-80
2023/04/17 07:02:47;;;;;;;;;;;16.50;67.60;;;;;;5004057;28;19932;-81
2023/04/17 07:05:12;;;;;;;;;;;16.60;67.20;;;;;;5004379;28;19921;-82
2023/04/17 07:07:38;;;;;;;;;;;17.40;65.50;;;;;;5004763;28;19999;-81
2023/04/17 07:10:05;;;;;;;;;;;18.20;64.00;;;;;;4997938;28;19909;-83
2023/04/17 07:12:30;;;;;;;;;;;17.90;63.60;;;;;;4999728;28;19968;-80
2023/04/17 07:14:56;;;;;;;;;;;17.30;65.20;;;;;;4991439;28;19913;-80
2023/04/17 07:17:22;;;;;;;;;;;17.20;64.20;;;;;;5003120;28;19991;-81
2023/04/17 07:19:47;;;;;;;;;;;17.20;64.90;;;;;;5003010;28;20396;-81
2023/04/17 07:22:13;;;;;;;;;;;17.70;63.50;;;;;;4998917;28;20285;-82
2023/04/17 07:24:38;;;;;;;;;;;18.10;63.20;;;;;;5001711;28;20767;-82
2023/04/17 07:27:06;;;;;;;;;;;17.40;61.90;;;;;;5000710;28;19919;-82
2023/04/17 07:29:31;;;;;;;;;;;17.90;62.30;;;;;;5003622;28;20393;-82
2023/04/17 07:31:57;;;;;;;;;;;18.30;61.20;;;;;;5003036;28;19910;-80
2023/04/17 07:34:26;;;;;;;;;;;18.40;61.40;;;;;;4995764;28;19943;-81
2023/04/17 07:36:51;;;;;;;;;;;18.40;60.70;;;;;;5003517;28;19987;-81
2023/04/17 07:39:17;;;;;;;;;;;19.40;59.60;;;;;;5000748;28;20355;-82
2023/04/17 07:41:43;;;;;;;;;;;18.60;58.10;;;;;;5000909;28;19936;-81
2023/04/17 07:44:08;;;;;;;;;;;19.40;59.10;;;;;;5003697;28;19909;-82
2023/04/17 07:46:34;;;;;;;;;;;19.70;58.40;;;;;;4999544;28;19936;-81
2023/04/17 07:48:59;;;;;;;;;;;21.00;56.40;;;;;;4999055;28;19968;-83
2023/04/17 07:51:25;;;;;;;;;;;21.50;56.60;;;;;;5001076;28;20028;-81
2023/04/17 07:53:50;;;;;;;;;;;20.40;56.40;;;;;;4997496;28;20714;-79
2023/04/17 07:56:16;;;;;;;;;;;19.60;57.80;;;;;;5003216;28;19955;-84
2023/04/17 07:58:43;;;;;;;;;;;19.70;57.10;;;;;;4998697;28;19961;-80
2023/04/17 08:01:09;;;;;;;;;;;19.40;57.50;;;;;;5000484;28;20224;-81
2023/04/17 08:03:35;;;;;;;;;;;20.60;56.00;;;;;;5001807;28;19912;-81
2023/04/17 08:06:00;;;;;;;;;;;21.30;55.00;;;;;;4993649;28;20310;-81
2023/04/17 08:08:26;;;;;;;;;;;20.40;55.10;;;;;;5000354;28;19952;-81
2023/04/17 08:10:52;;;;;;;;;;;20.30;55.50;;;;;;5001182;28;19955;-84
2023/04/17 08:13:17;;;;;;;;;;;20.40;54.80;;;;;;4999378;28;19913;-82
2023/04/17 08:15:44;;;;;;;;;;;20.90;55.10;;;;;;4993849;28;19910;-82
2023/04/17 08:18:10;;;;;;;;;;;20.20;53.20;;;;;;4992193;28;20384;-79
2023/04/17 08:20:35;;;;;;;;;;;21.00;53.80;;;;;;4994221;28;19909;-81
2023/04/17 08:23:01;;;;;;;;;;;19.60;53.50;;;;;;4999955;28;20721;-81
2023/04/17 08:25:26;;;;;;;;;;;20.70;53.80;;;;;;5002618;28;20400;-80
2023/04/17 08:27:52;;;;;;;;;;;20.20;53.00;;;;;;5002937;28;19913;-81
2023/04/17 08:30:19;;;;;;;;;;;20.70;53.50;;;;;;5002633;28;20443;-81
2023/04/17 08:32:48;;;;;;;;;;;22.00;52.80;;;;;;5002353;28;19977;-84
2023/04/17 08:35:14;;;;;;;;;;;21.70;52.60;;;;;;5003333;28;19909;-81
2023/04/17 08:37:41;;;;;;;;;;;21.20;51.70;;;;;;5002887;28;19913;-83
2023/04/17 08:40:11;;;;;;;;;;;21.90;52.40;;;;;;4998885;28;19964;-81
2023/04/17 08:42:37;;;;;;;;;;;22.70;51.70;;;;;;4988822;28;19921;-82
2023/04/17 08:45:04;;;;;;;;;;;21.80;50.70;;;;;;4993694;28;19923;-80
2023/04/17 08:47:29;;;;;;;;;;;21.70;52.30;;;;;;5001931;28;19916;-86
2023/04/17 08:49:56;;;;;;;;;;;21.90;51.50;;;;;;5001996;28;20308;-80
2023/04/17 08:52:22;;;;;;;;;;;21.50;51.40;;;;;;4992491;28;19918;-83
2023/04/17 08:54:48;;;;;;;;;;;21.30;52.40;;;;;;4996679;28;19978;-79
2023/04/17 08:57:14;;;;;;;;;;;21.50;52.10;;;;;;5005894;28;19929;-78
2023/04/17 08:59:42;;;;;;;;;;;22.70;50.80;;;;;;4995809;28;19913;-82
2023/04/17 09:02:09;;;;;;;;;;;22.40;51.60;;;;;;4996688;28;19909;-79
2023/04/17 09:04:38;;;;;;;;;;;22.70;48.30;;;;;;5002511;28;19953;-81
2023/04/17 09:07:05;;;;;;;;;;;21.90;50.00;;;;;;4997092;28;19906;-79
2023/04/17 09:09:50;;;;;;;;;;;22.80;49.30;;;;;;4998113;28;20710;-79
2023/04/17 09:12:16;;;;;;;;;;;22.50;49.90;;;;;;4998346;28;20365;-79
2023/04/17 09:14:41;;;;;;;;;;;23.20;48.70;;;;;;5001277;28;20008;-85
2023/04/17 09:17:07;;;;;;;;;;;23.50;47.30;;;;;;4994340;28;19914;-80
2023/04/17 09:19:32;;;;;;;;;;;23.40;46.90;;;;;;4999641;28;19955;-80
2023/04/17 09:22:16;;;;;;;;;;;24.50;46.90;;;;;;5000891;28;19935;-80
2023/04/17 09:24:43;;;;;;;;;;;24.60;47.20;;;;;;4999908;28;19909;-84
2023/04/17 09:27:25;;;;;;;;;;;25.10;47.30;;;;;;5002169;28;19906;-79
2023/04/17 09:29:57;;;;;;;;;;;24.60;46.40;;;;;;5002161;28;19956;-82
2023/04/17 09:32:22;;;;;;;;;;;25.70;46.80;;;;;;4993547;28;19917;-81
2023/04/17 09:34:49;;;;;;;;;;;23.40;46.00;;;;;;4995313;28;19939;-81
2023/04/17 09:37:14;;;;;;;;;;;22.50;48.90;;;;;;4995291;28;19913;-77
2023/04/17 09:39:53;;;;;;;;;;;21.30;46.80;;;;;;4996060;28;20403;-79
2023/04/17 09:42:19;;;;;;;;;;;22.50;48.80;;;;;;4992721;28;20745;-78
2023/04/17 09:44:44;;;;;;;;;;;23.40;47.10;;;;;;4997801;28;19920;-78
2023/04/17 09:47:11;;;;;;;;;;;24.40;47.80;;;;;;4998168;28;19936;-79
2023/04/17 09:49:37;;;;;;;;;;;25.90;44.60;;;;;;4990096;28;19920;-78
2023/04/17 09:52:03;;;;;;;;;;;25.60;42.40;;;;;;4999083;28;19913;-79
2023/04/17 09:54:36;;;;;;;;;;;25.70;43.20;;;;;;4997432;28;19917;-79
2023/04/17 09:57:03;;;;;;;;;;;25.40;45.40;;;;;;4996487;28;19921;-79
2023/04/17 09:59:29;;;;;;;;;;;25.60;45.50;;;;;;4998926;28;19918;-79
2023/04/17 10:01:55;;;;;;;;;;;24.00;44.90;;;;;;4998423;28;19924;-78
2023/04/17 10:04:21;;;;;;;;;;;23.20;45.60;;;;;;5000835;28;19913;-80
2023/04/17 10:06:47;;;;;;;;;;;24.40;45.80;;;;;;4997420;28;19917;-79
2023/04/17 10:09:13;;;;;;;;;;;22.80;46.80;;;;;;4999454;28;19967;-80
2023/04/17 10:11:43;;;;;;;;;;;23.90;46.00;;;;;;4997770;28;20649;-79
2023/04/17 10:14:18;;;;;;;;;;;22.90;45.10;;;;;;4999608;28;19925;-79
2023/04/17 10:16:45;;;;;;;;;;;22.80;46.90;;;;;;4999270;28;19909;-78
2023/04/17 10:19:30;;;;;;;;;;;21.90;48.00;;;;;;4996617;28;19959;-79
2023/04/17 10:22:14;;;;;;;;;;;20.00;50.00;;;;;;4998261;28;20012;-79
2023/04/17 10:24:47;;;;;;;;;;;19.50;49.50;;;;;;4997504;28;20424;-79
2023/04/17 10:27:21;;;;;;;;;;;19.50;49.50;;;;;;4991343;28;19917;-80
2023/04/17 10:29:53;;;;;;;;;;;19.50;49.70;;;;;;4995755;28;19914;-81
2023/04/17 10:32:19;;;;;;;;;;;19.90;52.30;;;;;;4993094;28;19936;-79
2023/04/17 10:34:45;;;;;;;;;;;19.60;50.80;;;;;;4995674;28;20412;-80
2023/04/17 10:37:14;;;;;;;;;;;19.40;51.00;;;;;;4997350;28;19913;-80
2023/04/17 10:39:50;;;;;;;;;;;20.20;52.50;;;;;;5000942;28;19937;-79
2023/04/17 10:42:17;;;;;;;;;;;18.60;50.40;;;;;;4997414;28;19913;-81
2023/04/17 10:44:44;;;;;;;;;;;20.30;49.70;;;;;;5001068;28;20448;-80
2023/04/17 10:47:12;;;;;;;;;;;19.50;50.10;;;;;;5001056;28;20018;-80
2023/04/17 10:49:50;;;;;;;;;;;18.70;51.60;;;;;;5000346;28;20393;-78
2023/04/17 10:52:31;;;;;;;;;;;18.40;51.90;;;;;;5001048;28;19913;-80
2023/04/17 10:55:06;;;;;;;;;;;18.00;53.30;;;;;;5000393;28;19922;-80
2023/04/17 10:57:50;;;;;;;;;;;18.20;54.10;;;;;;4998209;28;19921;-80
2023/04/17 11:00:16;;;;;;;;;;;18.50;51.80;;;;;;4993549;28;20048;-81
2023/04/17 11:02:44;;;;;;;;;;;19.50;52.80;;;;;;5002044;28;20503;-81
2023/04/17 11:05:10;;;;;;;;;;;19.20;51.30;;;;;;4997278;28;19917;-82
2023/04/17 11:07:35;;;;;;;;;;;18.90;53.80;;;;;;5001755;28;19914;-80
2023/04/17 11:10:05;;;;;;;;;;;18.20;56.20;;;;;;4995833;28;20015;-80
2023/04/17 11:12:31;;;;;;;;;;;18.00;54.70;;;;;;5001555;28;19923;-81
2023/04/17 11:15:00;;;;;;;;;;;18.50;56.00;;;;;;5002457;28;21377;-80
2023/04/17 11:17:26;;;;;;;;;;;17.80;52.80;;;;;;5001282;28;19987;-77
2023/04/17 11:19:52;;;;;;;;;;;18.00;57.70;;;;;;4994836;28;19921;-80
2023/04/17 11:22:18;;;;;;;;;;;18.30;54.40;;;;;;5000336;28;19913;-79
2023/04/17 11:24:43;;;;;;;;;;;18.20;57.50;;;;;;5000450;28;19921;-80
2023/04/17 11:27:09;;;;;;;;;;;17.80;52.60;;;;;;5002658;28;20616;-78
2023/04/17 11:29:34;;;;;;;;;;;17.90;55.00;;;;;;5001573;28;20380;-79
2023/04/17 11:32:00;;;;;;;;;;;18.00;52.70;;;;;;5000715;28;19913;-78
2023/04/17 11:34:26;;;;;;;;;;;17.40;52.50;;;;;;4998340;28;19921;-80
2023/04/17 11:36:51;;;;;;;;;;;17.60;53.50;;;;;;4994131;28;19920;-79
2023/04/17 11:39:21;;;;;;;;;;;17.40;55.40;;;;;;5001667;28;20028;-79
2023/04/17 11:41:47;;;;;;;;;;;17.20;55.80;;;;;;4998371;28;19917;-77
2023/04/17 11:44:13;;;;;;;;;;;17.70;54.30;;;;;;4995799;28;19978;-78
2023/04/17 11:46:39;;;;;;;;;;;18.10;54.90;;;;;;5000451;28;20491;-78
2023/04/17 11:49:05;;;;;;;;;;;17.30;53.80;;;;;;5001330;28;19917;-78
2023/04/17 11:51:30;;;;;;;;;;;17.50;54.40;;;;;;5001331;28;19935;-75
2023/04/17 11:53:56;;;;;;;;;;;17.40;52.20;;;;;;5000507;28;20440;-78
2023/04/17 11:56:27;;;;;;;;;;;17.80;52.90;;;;;;4998343;28;20303;-81
2023/04/17 11:58:55;;;;;;;;;;;18.00;55.60;;;;;;4996676;28;19929;-77
2023/04/17 12:01:24;;;;;;;;;;;18.30;51.00;;;;;;5000596;28;20365;-81
2023/04/17 12:03:51;;;;;;;;;;;17.90;53.00;;;;;;5002077;28;19960;-77
2023/04/17 12:06:17;;;;;;;;;;;18.20;51.90;;;;;;4995425;28;20436;-77
2023/04/17 12:08:43;;;;;;;;;;;18.60;53.50;;;;;;5002204;28;20428;-78
2023/04/17 12:11:14;;;;;;;;;;;18.10;50.40;;;;;;5003809;28;19963;-76
2023/04/17 12:13:39;;;;;;;;;;;17.80;53.80;;;;;;5003528;28;20380;-77
2023/04/17 12:16:06;;;;;;;;;;;17.60;52.00;;;;;;5002879;28;19983;-77
2023/04/17 12:18:31;;;;;;;;;;;18.10;55.60;;;;;;5003757;28;20365;-77
2023/04/17 12:20:57;;;;;;;;;;;18.10;55.10;;;;;;5003999;28;19932;-77
2023/04/17 12:23:22;;;;;;;;;;;18.10;52.30;;;;;;4999965;28;19952;-77
2023/04/17 12:25:48;;;;;;;;;;;17.90;52.80;;;;;;5003903;28;20007;-76
2023/04/17 12:28:14;;;;;;;;;;;18.50;54.10;;;;;;5000194;28;20131;-76
2023/04/17 12:30:41;;;;;;;;;;;18.30;51.40;;;;;;4997554;28;19973;-77
2023/04/17 12:33:07;;;;;;;;;;;17.60;52.20;;;;;;4998787;28;19925;-77
2023/04/17 12:35:32;;;;;;;;;;;18.20;52.10;;;;;;5001648;28;20360;-78
2023/04/17 12:37:58;;;;;;;;;;;18.40;51.50;;;;;;4997868;28;19909;-75
2023/04/17 12:40:24;;;;;;;;;;;18.00;50.80;;;;;;5002296;28;19905;-75
2023/04/17 12:42:49;;;;;;;;;;;17.60;51.20;;;;;;5001737;28;19917;-77
2023/04/17 12:45:15;;;;;;;;;;;17.30;51.20;;;;;;5002455;28;19917;-76
2023/04/17 12:47:41;;;;;;;;;;;17.10;51.70;;;;;;5000344;28;19976;-77
2023/04/17 12:50:07;;;;;;;;;;;17.30;53.80;;;;;;4998653;28;19953;-77
2023/04/17 12:52:33;;;;;;;;;;;17.40;51.90;;;;;;5000027;28;19997;-77
2023/04/17 12:54:59;;;;;;;;;;;17.40;51.90;;;;;;4999938;28;19909;-76
2023/04/17 12:57:25;;;;;;;;;;;17.10;48.00;;;;;;4993488;28;19922;-75
2023/04/17 12:59:51;;;;;;;;;;;17.60;51.70;;;;;;4997148;28;20011;-76
2023/04/17 13:02:21;;;;;;;;;;;17.70;50.90;;;;;;4997655;28;20024;-76
2023/04/17 13:04:47;;;;;;;;;;;17.60;51.10;;;;;;4990351;28;19920;-77
2023/04/17 13:07:12;;;;;;;;;;;17.30;51.20;;;;;;4996476;28;19952;-77
2023/04/17 13:09:38;;;;;;;;;;;16.90;50.40;;;;;;4998747;28;19945;-77
2023/04/17 13:12:05;;;;;;;;;;;16.70;51.80;;;;;;4999260;28;19991;-77
2023/04/17 13:14:30;;;;;;;;;;;16.70;52.80;;;;;;5000302;28;20396;-77
2023/04/17 13:16:56;;;;;;;;;;;16.90;52.90;;;;;;4995937;28;19917;-77
2023/04/17 13:19:21;;;;;;;;;;;17.30;52.40;;;;;;4998510;28;20587;-77
2023/04/17 13:21:48;;;;;;;;;;;17.70;51.60;;;;;;4999529;28;20868;-79
2023/04/17 13:24:13;;;;;;;;;;;17.70;51.00;;;;;;4998434;28;19920;-77
2023/04/17 13:26:39;;;;;;;;;;;18.00;50.80;;;;;;4997950;28;19913;-79
2023/04/17 13:29:05;;;;;;;;;;;17.80;50.00;;;;;;4997572;28;19960;-78
2023/04/17 13:31:31;;;;;;;;;;;17.40;51.10;;;;;;4988530;28;20439;-79
2023/04/17 13:33:56;;;;;;;;;;;17.10;50.80;;;;;;4997379;28;20049;-79
2023/04/17 13:36:22;;;;;;;;;;;16.80;51.20;;;;;;4997053;28;20551;-79
2023/04/17 13:38:47;;;;;;;;;;;16.70;52.10;;;;;;4998243;28;20403;-79
2023/04/17 13:41:13;;;;;;;;;;;16.70;52.80;;;;;;4995669;28;19926;-78
2023/04/17 13:43:38;;;;;;;;;;;17.30;53.00;;;;;;4995144;28;19914;-77
2023/04/17 13:46:04;;;;;;;;;;;17.30;50.60;;;;;;4999344;28;19925;-77
2023/04/17 13:48:30;;;;;;;;;;;17.20;50.00;;;;;;5001882;28;20482;-79
2023/04/17 13:50:55;;;;;;;;;;;17.00;50.00;;;;;;4995357;28;19913;-77
2023/04/17 13:53:21;;;;;;;;;;;16.90;50.90;;;;;;4995181;28;19948;-79
2023/04/17 13:55:47;;;;;;;;;;;16.90;51.50;;;;;;5000355;28;20348;-77
2023/04/17 13:58:12;;;;;;;;;;;17.10;51.80;;;;;;4996923;28;20372;-79
2023/04/17 14:00:38;;;;;;;;;;;17.30;51.80;;;;;;4998921;28;19989;-77
2023/04/17 14:03:03;;;;;;;;;;;17.50;51.60;;;;;;4997987;28;19921;-77
2023/04/17 14:05:29;;;;;;;;;;;17.20;50.30;;;;;;4993078;28;20013;-76
2023/04/17 14:07:55;;;;;;;;;;;17.40;51.70;;;;;;4998699;28;19992;-77
2023/04/17 14:10:21;;;;;;;;;;;17.60;52.90;;;;;;5000759;28;20004;-76
2023/04/17 14:12:46;;;;;;;;;;;17.40;50.70;;;;;;5000940;28;20398;-76
2023/04/17 14:15:12;;;;;;;;;;;17.50;52.80;;;;;;4999530;28;20434;-78
2023/04/17 14:17:41;;;;;;;;;;;17.20;51.10;;;;;;5000413;28;19968;-77